TOTEM BAY KUPREANOF ISLAND RAWS NEAR PE HADS current weather conditions

sailwx.info

Wind from 215 at 5 knots gusting 13

Air temperature 1.1° C
Dewpoint 0.5° C

Last reported at 2018-Jan-22 21:55 UTC.
Time now 2018-Jan-22 22:16 UTC

Location: N 56°18' W 132°51'.
View on Google Maps.

See reports from other nearby stations

  
Tides and Currents Weather Stations Pressure Air Temp Water Temp Dewpoint Dewpoint Depression Visibility Wind Speed Wind Dir Waves Ship Positions
date/time (UTC)wind fromknots sea level pressurealtimeterstation pressurevisibilityair tempwater tempwave heightnotes
2018-Jan-22 21:55 215 5 gusting 13 1.1
2018-Jan-22 20:55 210 9 gusting 16 0.6
2018-Jan-22 19:55 212 8 gusting 18 0.6
2018-Jan-22 17:55 200 12 gusting 19 -0.0
2018-Jan-22 16:55 226 0 gusting 5 -0.0
2018-Jan-22 15:55 089 3 gusting 7 0.6
2018-Jan-22 14:55 048 4 gusting 9 -0.0
2018-Jan-22 13:55 063 4 gusting 8 -0.0
2018-Jan-22 12:55 068 5 gusting 9 0.6
2018-Jan-22 11:55 124 1 gusting 6 0.6
2018-Jan-22 10:55 140 1 gusting 7 0.6
2018-Jan-22 09:55 052 2 gusting 5 -0.6
2018-Jan-22 08:55 299 1 gusting 6 0.6
2018-Jan-22 07:55 060 3 gusting 6 0.6
2018-Jan-22 06:55 072 2 gusting 6 0.6
2018-Jan-22 05:55 054 4 gusting 6 -0.0
2018-Jan-22 04:55 084 3 gusting 6 0.6
2018-Jan-22 03:55 073 3 gusting 5 0.6
2018-Jan-22 02:55 056 3 gusting 4 1.1
2018-Jan-22 01:55 079 2 gusting 4 0.6
2018-Jan-22 00:55 085 1 gusting 8 1.1
2018-Jan-21 23:55 063 1 gusting 4 3.9
2018-Jan-21 22:55 257 2 gusting 5 4.4
2018-Jan-21 21:55 268 2 gusting 9 4.4
2018-Jan-21 20:55 076 5 gusting 11 3.3
2018-Jan-21 19:55 085 6 gusting 13 2.8
2018-Jan-21 18:55 082 8 gusting 14 1.7
2018-Jan-21 17:55 088 8 gusting 13 0.6
2018-Jan-21 16:55 084 6 gusting 14 0.6
2018-Jan-21 15:55 095 6 gusting 16 0.6
2018-Jan-21 14:55 084 6 gusting 13 -0.0
2018-Jan-21 13:55 086 6 gusting 13 1.7
2018-Jan-21 12:55 073 6 gusting 10 1.7
2018-Jan-21 11:55 110 3 gusting 9 2.2
2018-Jan-21 10:55 096 6 gusting 8 2.2
2018-Jan-21 09:55 099 5 gusting 10 2.2
2018-Jan-21 08:55 067 4 gusting 13 1.1
2018-Jan-21 07:55 108 6 gusting 12 2.2
2018-Jan-21 06:55 139 1 gusting 9 2.2
2018-Jan-21 05:55 110 6 gusting 13 2.8
2018-Jan-21 04:55 092 7 gusting 14 2.2
2018-Jan-21 03:55 096 10 gusting 19 2.8
2018-Jan-21 02:55 099 11 gusting 19 3.3
2018-Jan-21 01:55 071 7 gusting 14 2.8
2018-Jan-21 00:55 083 6 gusting 14 3.3
2018-Jan-20 23:55 098 7 gusting 14 3.9
2018-Jan-20 22:55 106 6 gusting 13 3.9